Terminal Aerodrome Forecast
Issued by NWS

Home | Current Version | Previous Version | Text Only | Print | Product List | Glossary On
Versions: 1 2 3 4 5 6 7 8 9 10 11 12 13
000
FTUS42 TJSJ 250543
TAFIST
TAF
TIST 250543Z 2506/2606 14005KT P6SM FEW019 SCT026 SCT035
     FM251400 16009KT P6SM FEW040 SCT070
     FM252200 11004KT P6SM FEW040 SCT070=

USA.gov is the U.S. government's official web portal to all federal, state and local government web resources and services.